Terminal Aerodrome Forecast
Issued by NWS

Home | Current Version | Previous Version | Graphics & Text | Print | Product List | Glossary On
Versions: 1 2 3 4 5 6 7 8 9 10 11 12 13 14 15 16
708
FTUS43 KICT 252320
TAFSLN
TAF
KSLN 252320Z 2600/2624 35013KT P6SM VCSH OVC035
     FM260200 36016G23KT P6SM VCSH OVC018
     FM261200 35016G24KT P6SM OVC025
     FM261600 34018G25KT P6SM SCT035 BKN150=

USA.gov is the U.S. government's official web portal to all federal, state and local government web resources and services.